Time;durP1;ratioP1;P1;durP2;ratioP2;P2;SDS_P1;SDS_P2;PMS_P1;PMS_P2;Temp;Humidity;BMP_temperature;BMP_pressure;BME280_temperature;BME280_humidity;BME280_pressure;Samples;Min_cycle;Max_cycle;Signal;HPM_P1;HPM_P2
2023/07/16 00:00:04;;;;;;;2.00;0.90;;;;;;;;;;624636;23;1937;-74
2023/07/16 00:00:20;;;;;;;2.50;0.98;;;;;;;;;;624982;23;1192;-75
2023/07/16 00:00:36;;;;;;;2.67;1.05;;;;;;;;;;624956;23;1362;-74
2023/07/16 00:00:51;;;;;;;2.37;1.10;;;;;;;;;;625589;23;1176;-74
2023/07/16 00:01:06;;;;;;;1.90;0.90;;;;;;;;;;624233;23;1630;-74
2023/07/16 00:01:22;;;;;;;1.70;0.90;;;;;;;;;;627154;23;894;-75
2023/07/16 00:01:37;;;;;;;1.90;0.90;;;;;;;;;;626371;23;1246;-75
2023/07/16 00:01:52;;;;;;;1.70;0.90;;;;;;;;;;626317;23;1086;-74
2023/07/16 00:02:08;;;;;;;1.67;0.98;;;;;;;;;;626731;23;1216;-75
2023/07/16 00:02:23;;;;;;;2.30;1.00;;;;;;;;;;623712;23;1192;-74
2023/07/16 00:02:38;;;;;;;2.20;0.90;;;;;;;;;;622523;23;1252;-74
2023/07/16 00:02:54;;;;;;;2.47;1.00;;;;;;;;;;620578;23;911;-74
2023/07/16 00:03:09;;;;;;;2.17;1.00;;;;;;;;;;627669;23;1196;-75
2023/07/16 00:03:25;;;;;;;1.13;0.77;;;;;;;;;;627221;23;951;-74
2023/07/16 00:03:40;;;;;;;1.92;0.85;;;;;;;;;;624934;23;1191;-74
2023/07/16 00:03:55;;;;;;;2.70;1.10;;;;;;;;;;625016;23;1024;-74
2023/07/16 00:04:10;;;;;;;1.97;1.07;;;;;;;;;;625397;23;1176;-74
2023/07/16 00:04:26;;;;;;;1.73;1.00;;;;;;;;;;627057;23;887;-74
2023/07/16 00:04:41;;;;;;;2.13;0.85;;;;;;;;;;625551;23;1297;-74
2023/07/16 00:04:56;;;;;;;2.03;0.80;;;;;;;;;;621922;23;1290;-74
2023/07/16 00:05:12;;;;;;;1.73;0.90;;;;;;;;;;625224;23;970;-76
2023/07/16 00:05:27;;;;;;;2.47;1.00;;;;;;;;;;625447;23;804;-74
2023/07/16 00:05:42;;;;;;;3.77;1.00;;;;;;;;;;628290;23;930;-74
2023/07/16 00:05:58;;;;;;;3.13;0.87;;;;;;;;;;625357;23;1278;-74
2023/07/16 00:06:13;;;;;;;2.40;0.80;;;;;;;;;;626979;23;1264;-74
2023/07/16 00:06:28;;;;;;;2.20;0.90;;;;;;;;;;627686;23;815;-75
2023/07/16 00:06:43;;;;;;;2.00;1.00;;;;;;;;;;626736;23;1368;-74
2023/07/16 00:07:00;;;;;;;2.17;1.00;;;;;;;;;;627445;23;1148;-75
2023/07/16 00:07:17;;;;;;;2.45;1.17;;;;;;;;;;627055;23;1362;-75
2023/07/16 00:07:32;;;;;;;2.60;1.02;;;;;;;;;;624507;23;1267;-74
2023/07/16 00:07:47;;;;;;;3.33;1.00;;;;;;;;;;625888;23;852;-74
2023/07/16 00:08:03;;;;;;;3.10;1.10;;;;;;;;;;624236;23;1163;-74
2023/07/16 00:08:18;;;;;;;3.05;1.10;;;;;;;;;;625521;23;849;-75
2023/07/16 00:08:34;;;;;;;2.97;1.10;;;;;;;;;;624649;23;1274;-73
2023/07/16 00:08:49;;;;;;;2.83;0.93;;;;;;;;;;622637;23;1239;-74
2023/07/16 00:09:04;;;;;;;2.95;0.98;;;;;;;;;;623420;23;870;-74
2023/07/16 00:09:19;;;;;;;2.33;1.10;;;;;;;;;;624760;23;1140;-74
2023/07/16 00:09:35;;;;;;;2.33;1.03;;;;;;;;;;627853;23;1271;-75
2023/07/16 00:09:50;;;;;;;2.90;1.00;;;;;;;;;;628691;23;959;-74
2023/07/16 00:10:06;;;;;;;2.93;1.00;;;;;;;;;;631463;23;808;-73
2023/07/16 00:10:21;;;;;;;2.17;0.90;;;;;;;;;;630764;23;998;-75
2023/07/16 00:10:37;;;;;;;3.83;1.00;;;;;;;;;;633444;23;949;-74
2023/07/16 00:10:52;;;;;;;4.20;1.10;;;;;;;;;;630390;23;1207;-75
2023/07/16 00:11:07;;;;;;;2.67;1.10;;;;;;;;;;627924;23;1305;-74
2023/07/16 00:11:23;;;;;;;2.77;1.00;;;;;;;;;;631156;23;1456;-74
2023/07/16 00:11:38;;;;;;;1.90;0.90;;;;;;;;;;627688;23;1274;-74
2023/07/16 00:11:53;;;;;;;1.85;0.95;;;;;;;;;;627820;23;1234;-74
2023/07/16 00:12:09;;;;;;;2.90;1.00;;;;;;;;;;628275;23;946;-73
2023/07/16 00:12:24;;;;;;;2.83;1.10;;;;;;;;;;624912;23;1345;-75
2023/07/16 00:12:40;;;;;;;2.30;0.98;;;;;;;;;;627503;23;1323;-73
2023/07/16 00:12:56;;;;;;;2.75;0.82;;;;;;;;;;625137;23;1259;-73
2023/07/16 00:13:11;;;;;;;2.53;1.00;;;;;;;;;;625385;23;1467;-74
2023/07/16 00:13:27;;;;;;;3.10;1.10;;;;;;;;;;625344;23;1356;-74
2023/07/16 00:13:47;;;;;;;2.83;1.00;;;;;;;;;;621691;23;1180;-73
2023/07/16 00:14:02;;;;;;;1.67;0.93;;;;;;;;;;625186;23;974;-73
2023/07/16 00:14:18;;;;;;;2.50;0.97;;;;;;;;;;624892;23;1216;-74
2023/07/16 00:14:33;;;;;;;3.07;1.00;;;;;;;;;;625153;23;1178;-74
2023/07/16 00:14:48;;;;;;;2.47;1.00;;;;;;;;;;624577;23;1012;-74
2023/07/16 00:15:06;;;;;;;2.47;1.00;;;;;;;;;;624832;23;1435;-74
2023/07/16 00:15:21;;;;;;;2.67;1.00;;;;;;;;;;624597;23;870;-74
2023/07/16 00:15:36;;;;;;;3.10;1.10;;;;;;;;;;625248;23;1423;-74
2023/07/16 00:15:51;;;;;;;2.63;1.00;;;;;;;;;;625375;23;1168;-74
2023/07/16 00:16:07;;;;;;;2.60;1.00;;;;;;;;;;625232;23;1154;-73
2023/07/16 00:16:22;;;;;;;2.97;1.10;;;;;;;;;;626207;23;1181;-74
2023/07/16 00:16:38;;;;;;;2.75;1.00;;;;;;;;;;625986;23;1457;-74
2023/07/16 00:16:53;;;;;;;2.53;0.93;;;;;;;;;;624568;23;1300;-74
2023/07/16 00:17:08;;;;;;;3.08;1.00;;;;;;;;;;624856;23;840;-73
2023/07/16 00:17:24;;;;;;;3.40;1.10;;;;;;;;;;618619;23;1253;-74
2023/07/16 00:17:39;;;;;;;2.47;1.10;;;;;;;;;;621860;23;1156;-74
2023/07/16 00:17:54;;;;;;;1.60;0.90;;;;;;;;;;625017;23;1175;-74
2023/07/16 00:18:10;;;;;;;1.40;0.82;;;;;;;;;;624830;23;880;-75
2023/07/16 00:18:25;;;;;;;2.00;0.90;;;;;;;;;;625730;23;1021;-75
2023/07/16 00:18:46;;;;;;;2.28;1.00;;;;;;;;;;628112;23;1530;-74
2023/07/16 00:19:02;;;;;;;2.08;1.05;;;;;;;;;;628438;23;1099;-74
2023/07/16 00:19:17;;;;;;;2.03;0.93;;;;;;;;;;628231;23;1309;-74
2023/07/16 00:19:32;;;;;;;2.07;0.87;;;;;;;;;;627590;23;803;-74
2023/07/16 00:19:48;;;;;;;2.65;0.93;;;;;;;;;;626364;23;1303;-74
2023/07/16 00:20:04;;;;;;;2.43;1.00;;;;;;;;;;624112;23;1959;-74
2023/07/16 00:20:19;;;;;;;2.47;1.00;;;;;;;;;;621872;23;1373;-73
2023/07/16 00:20:35;;;;;;;3.27;1.10;;;;;;;;;;623889;23;1315;-74
2023/07/16 00:20:50;;;;;;;2.47;1.03;;;;;;;;;;621753;23;1192;-75
2023/07/16 00:21:05;;;;;;;2.10;0.93;;;;;;;;;;623931;23;1173;-74
2023/07/16 00:21:21;;;;;;;2.88;1.05;;;;;;;;;;625501;23;1323;-74
2023/07/16 00:21:37;;;;;;;2.33;1.00;;;;;;;;;;624824;23;1208;-74
2023/07/16 00:21:52;;;;;;;1.80;1.00;;;;;;;;;;622141;23;1274;-75
2023/07/16 00:22:08;;;;;;;2.17;1.00;;;;;;;;;;622033;23;1028;-75
2023/07/16 00:22:23;;;;;;;3.17;1.00;;;;;;;;;;621877;23;1224;-73
2023/07/16 00:22:41;;;;;;;2.70;1.00;;;;;;;;;;622668;23;979;-74
2023/07/16 00:22:57;;;;;;;1.90;1.00;;;;;;;;;;625258;23;1211;-74
2023/07/16 00:23:12;;;;;;;2.78;1.17;;;;;;;;;;624891;23;1393;-74
2023/07/16 00:23:27;;;;;;;3.37;1.30;;;;;;;;;;623765;23;1283;-74
2023/07/16 00:23:42;;;;;;;3.08;1.10;;;;;;;;;;624990;23;991;-73
2023/07/16 00:23:58;;;;;;;2.60;1.10;;;;;;;;;;625373;23;1252;-74
2023/07/16 00:24:14;;;;;;;1.92;1.13;;;;;;;;;;625957;23;1182;-74
2023/07/16 00:24:29;;;;;;;2.47;1.00;;;;;;;;;;624187;23;1306;-74
2023/07/16 00:24:44;;;;;;;3.30;1.10;;;;;;;;;;625089;23;858;-73
2023/07/16 00:25:00;;;;;;;2.63;1.10;;;;;;;;;;627776;23;963;-74
2023/07/16 00:25:15;;;;;;;2.20;1.10;;;;;;;;;;628351;23;1132;-74
2023/07/16 00:25:30;;;;;;;2.10;1.07;;;;;;;;;;627953;23;1140;-74
2023/07/16 00:25:46;;;;;;;1.88;0.93;;;;;;;;;;624789;23;1207;-74
2023/07/16 00:26:01;;;;;;;2.40;1.00;;;;;;;;;;627958;23;788;-74
2023/07/16 00:26:16;;;;;;;2.07;1.00;;;;;;;;;;625356;23;1239;-74
2023/07/16 00:26:32;;;;;;;2.90;1.17;;;;;;;;;;624956;23;1262;-75
2023/07/16 00:26:47;;;;;;;3.75;1.20;;;;;;;;;;625103;23;867;-73
2023/07/16 00:27:03;;;;;;;2.63;1.10;;;;;;;;;;622447;23;1084;-75
2023/07/16 00:27:18;;;;;;;2.70;1.10;;;;;;;;;;618672;23;1256;-74
2023/07/16 00:27:34;;;;;;;2.58;1.00;;;;;;;;;;618310;23;1267;-74
2023/07/16 00:27:49;;;;;;;1.70;1.00;;;;;;;;;;615676;23;1196;-74
2023/07/16 00:28:04;;;;;;;1.90;1.00;;;;;;;;;;621736;23;1168;-74
2023/07/16 00:28:20;;;;;;;2.30;1.10;;;;;;;;;;622157;23;1326;-74
2023/07/16 00:28:35;;;;;;;1.90;1.10;;;;;;;;;;622546;23;1174;-74
2023/07/16 00:28:51;;;;;;;2.38;1.00;;;;;;;;;;623959;23;1243;-74
2023/07/16 00:29:06;;;;;;;2.63;1.00;;;;;;;;;;627939;23;1196;-74
2023/07/16 00:29:21;;;;;;;2.73;1.10;;;;;;;;;;624974;23;1314;-74
2023/07/16 00:29:37;;;;;;;2.87;1.10;;;;;;;;;;624906;23;1196;-73
2023/07/16 00:29:52;;;;;;;3.22;1.10;;;;;;;;;;625208;23;836;-75
2023/07/16 00:30:08;;;;;;;3.57;1.20;;;;;;;;;;622762;23;1286;-73
2023/07/16 00:30:23;;;;;;;3.28;1.20;;;;;;;;;;621961;23;1291;-75
2023/07/16 00:31:19;;;;;;;2.77;1.10;;;;;;;;;;625729;23;1279;-74
2023/07/16 00:31:34;;;;;;;2.38;1.00;;;;;;;;;;629405;23;1248;-74
2023/07/16 00:31:50;;;;;;;2.90;1.20;;;;;;;;;;627774;23;1274;-74
2023/07/16 00:32:05;;;;;;;2.85;1.20;;;;;;;;;;629840;23;957;-74
2023/07/16 00:32:21;;;;;;;2.30;1.03;;;;;;;;;;627610;23;1160;-74
2023/07/16 00:32:36;;;;;;;2.83;1.10;;;;;;;;;;630278;23;1180;-74
2023/07/16 00:32:51;;;;;;;2.20;1.10;;;;;;;;;;630996;23;868;-74
2023/07/16 00:33:06;;;;;;;2.50;1.07;;;;;;;;;;627410;23;1216;-73
2023/07/16 00:33:22;;;;;;;2.80;1.03;;;;;;;;;;625070;23;1391;-74
2023/07/16 00:33:37;;;;;;;2.78;1.10;;;;;;;;;;625460;23;796;-74
2023/07/16 00:33:52;;;;;;;2.83;1.10;;;;;;;;;;628036;23;1280;-74
2023/07/16 00:34:08;;;;;;;2.87;1.00;;;;;;;;;;628089;23;811;-75
2023/07/16 00:34:23;;;;;;;2.78;1.10;;;;;;;;;;625642;23;1307;-74
2023/07/16 00:34:38;;;;;;;2.53;1.10;;;;;;;;;;626024;23;931;-75
2023/07/16 00:34:54;;;;;;;2.37;1.17;;;;;;;;;;622190;23;1125;-75
2023/07/16 00:35:09;;;;;;;2.37;1.10;;;;;;;;;;625402;23;1013;-74
2023/07/16 00:35:24;;;;;;;2.23;1.10;;;;;;;;;;627606;23;1205;-74
2023/07/16 00:35:47;;;;;;;2.00;1.10;;;;;;;;;;628630;23;1179;-74
2023/07/16 00:36:02;;;;;;;1.30;0.93;;;;;;;;;;627804;23;1397;-74
2023/07/16 00:36:17;;;;;;;1.37;0.90;;;;;;;;;;627800;23;931;-74
2023/07/16 00:36:33;;;;;;;2.07;1.00;;;;;;;;;;624309;23;1071;-75
2023/07/16 00:36:48;;;;;;;2.47;1.10;;;;;;;;;;623333;23;1427;-74
2023/07/16 00:37:04;;;;;;;2.33;1.17;;;;;;;;;;624908;23;1398;-74
2023/07/16 00:37:19;;;;;;;1.97;1.10;;;;;;;;;;624854;23;813;-74
2023/07/16 00:37:35;;;;;;;2.22;1.00;;;;;;;;;;626644;23;1170;-74
2023/07/16 00:37:50;;;;;;;2.50;1.00;;;;;;;;;;628183;23;796;-75
2023/07/16 00:38:05;;;;;;;2.40;1.17;;;;;;;;;;631985;23;800;-74
2023/07/16 00:38:20;;;;;;;1.97;1.10;;;;;;;;;;627915;23;1276;-75
2023/07/16 00:38:36;;;;;;;2.97;1.13;;;;;;;;;;625266;23;1313;-74
2023/07/16 00:38:51;;;;;;;3.25;1.30;;;;;;;;;;625220;23;1192;-75
2023/07/16 00:39:06;;;;;;;2.03;1.10;;;;;;;;;;625164;23;982;-74
2023/07/16 00:39:22;;;;;;;2.23;0.93;;;;;;;;;;622124;23;1149;-75
2023/07/16 00:39:57;;;;;;;2.50;0.90;;;;;;;;;;625011;23;836;-75
2023/07/16 00:40:13;;;;;;;3.38;1.20;;;;;;;;;;625576;23;1304;-73
2023/07/16 00:40:28;;;;;;;2.63;1.20;;;;;;;;;;627880;23;1064;-74
2023/07/16 00:40:44;;;;;;;1.90;1.07;;;;;;;;;;629876;23;974;-75
2023/07/16 00:41:00;;;;;;;2.63;1.15;;;;;;;;;;627872;23;1164;-75
2023/07/16 00:41:15;;;;;;;3.23;1.30;;;;;;;;;;629444;23;898;-74
2023/07/16 00:41:31;;;;;;;2.30;1.10;;;;;;;;;;631325;23;950;-75
2023/07/16 00:41:46;;;;;;;1.83;1.00;;;;;;;;;;628486;23;1297;-75
2023/07/16 00:42:02;;;;;;;2.33;1.00;;;;;;;;;;628969;23;862;-75
2023/07/16 00:42:17;;;;;;;2.50;1.10;;;;;;;;;;630411;23;961;-74
2023/07/16 00:42:32;;;;;;;2.60;1.13;;;;;;;;;;627756;23;1328;-75
2023/07/16 00:42:48;;;;;;;2.47;1.00;;;;;;;;;;627791;23;842;-74
2023/07/16 00:43:03;;;;;;;1.97;1.00;;;;;;;;;;630558;23;914;-75
2023/07/16 00:43:18;;;;;;;2.13;1.10;;;;;;;;;;628888;23;1310;-74
2023/07/16 00:43:34;;;;;;;2.60;1.20;;;;;;;;;;628652;23;1267;-74
2023/07/16 00:43:49;;;;;;;3.07;1.20;;;;;;;;;;630965;23;968;-75
2023/07/16 00:44:04;;;;;;;3.25;1.20;;;;;;;;;;631395;23;851;-74
2023/07/16 00:44:22;;;;;;;3.17;1.10;;;;;;;;;;628068;23;1179;-75
2023/07/16 00:44:37;;;;;;;2.67;1.10;;;;;;;;;;628018;23;844;-75
2023/07/16 00:44:52;;;;;;;2.27;1.10;;;;;;;;;;624746;23;1188;-73
2023/07/16 00:45:12;;;;;;;2.67;1.17;;;;;;;;;;624622;23;1254;-75
2023/07/16 00:45:28;;;;;;;2.58;1.10;;;;;;;;;;626935;23;1016;-75
2023/07/16 00:45:46;;;;;;;2.92;1.10;;;;;;;;;;625268;23;1690;-75
2023/07/16 00:46:02;;;;;;;3.33;1.20;;;;;;;;;;628304;23;1283;-75
2023/07/16 00:46:17;;;;;;;3.63;1.10;;;;;;;;;;625557;23;1201;-74
2023/07/16 00:46:33;;;;;;;3.50;1.10;;;;;;;;;;625024;23;1212;-74
2023/07/16 00:46:49;;;;;;;2.53;1.10;;;;;;;;;;625192;23;1017;-74
2023/07/16 00:47:04;;;;;;;1.60;1.00;;;;;;;;;;621714;23;1402;-74
2023/07/16 00:47:21;;;;;;;2.07;1.00;;;;;;;;;;622473;23;831;-74
2023/07/16 00:47:37;;;;;;;2.88;1.10;;;;;;;;;;624250;23;1123;-74
2023/07/16 00:47:52;;;;;;;3.20;1.20;;;;;;;;;;625509;23;954;-75
2023/07/16 00:48:08;;;;;;;2.80;1.10;;;;;;;;;;626448;23;1396;-75
2023/07/16 00:48:23;;;;;;;1.80;1.00;;;;;;;;;;628732;23;898;-75
2023/07/16 00:48:40;;;;;;;2.03;1.00;;;;;;;;;;627286;23;1167;-75
2023/07/16 00:48:56;;;;;;;2.10;1.02;;;;;;;;;;628643;23;900;-74
2023/07/16 00:49:11;;;;;;;2.20;1.13;;;;;;;;;;628135;23;1293;-74
2023/07/16 00:49:28;;;;;;;1.90;1.02;;;;;;;;;;624592;23;1286;-75
2023/07/16 00:49:44;;;;;;;1.70;0.93;;;;;;;;;;622024;23;1353;-74
2023/07/16 00:49:59;;;;;;;2.23;1.07;;;;;;;;;;624303;23;852;-74
2023/07/16 00:50:15;;;;;;;2.50;1.20;;;;;;;;;;625161;23;1151;-75
2023/07/16 00:50:33;;;;;;;2.33;1.10;;;;;;;;;;625039;23;1113;-74
2023/07/16 00:50:52;;;;;;;3.03;1.10;;;;;;;;;;622021;23;1255;-75
2023/07/16 00:51:07;;;;;;;3.03;1.20;;;;;;;;;;625464;23;1357;-74
2023/07/16 00:51:25;;;;;;;2.08;1.10;;;;;;;;;;625849;23;1355;-74
2023/07/16 00:51:41;;;;;;;2.72;1.10;;;;;;;;;;627139;23;887;-74
2023/07/16 00:51:57;;;;;;;2.50;1.10;;;;;;;;;;628120;23;993;-75
2023/07/16 00:52:18;;;;;;;2.15;1.17;;;;;;;;;;628103;23;990;-74
2023/07/16 00:52:33;;;;;;;3.17;1.10;;;;;;;;;;631790;23;862;-73
2023/07/16 00:52:49;;;;;;;2.90;1.10;;;;;;;;;;628740;23;1254;-75
2023/07/16 00:53:08;;;;;;;2.42;1.13;;;;;;;;;;627729;23;1361;-74
2023/07/16 00:53:23;;;;;;;2.90;1.10;;;;;;;;;;628129;23;1227;-75
2023/07/16 00:54:19;;;;;;;3.08;1.13;;;;;;;;;;625705;23;1317;-75
2023/07/16 00:54:35;;;;;;;2.38;1.10;;;;;;;;;;621397;23;1284;-75
2023/07/16 00:55:10;;;;;;;2.88;1.10;;;;;;;;;;623056;23;1248;-74
2023/07/16 00:55:26;;;;;;;2.35;1.00;;;;;;;;;;624593;23;1377;-74
2023/07/16 00:55:42;;;;;;;2.63;1.10;;;;;;;;;;624996;23;1374;-74
2023/07/16 00:55:57;;;;;;;2.80;1.25;;;;;;;;;;624802;23;894;-74
2023/07/16 00:56:16;;;;;;;2.95;1.17;;;;;;;;;;622343;23;1369;-74
2023/07/16 00:56:31;;;;;;;2.83;1.10;;;;;;;;;;621457;23;1717;-76
2023/07/16 00:57:07;;;;;;;2.38;1.00;;;;;;;;;;624387;23;1302;-75
2023/07/16 00:57:44;;;;;;;2.00;1.10;;;;;;;;;;628303;23;1122;-75
2023/07/16 00:58:05;;;;;;;2.10;0.93;;;;;;;;;;624756;23;1739;-74
2023/07/16 00:58:20;;;;;;;2.78;1.02;;;;;;;;;;625275;23;1385;-74
2023/07/16 00:58:35;;;;;;;2.73;1.10;;;;;;;;;;628260;23;803;-74
2023/07/16 00:58:51;;;;;;;2.60;1.02;;;;;;;;;;627751;23;1180;-74
2023/07/16 00:59:06;;;;;;;2.43;1.10;;;;;;;;;;628746;23;784;-74
2023/07/16 00:59:21;;;;;;;2.30;1.20;;;;;;;;;;628258;23;811;-74
2023/07/16 00:59:36;;;;;;;2.13;1.10;;;;;;;;;;625025;23;1252;-74
2023/07/16 00:59:52;;;;;;;2.40;1.10;;;;;;;;;;626609;23;878;-75
2023/07/16 01:00:09;;;;;;;3.03;1.20;;;;;;;;;;627461;23;1970;-75
2023/07/16 01:00:24;;;;;;;2.88;1.13;;;;;;;;;;628128;23;843;-74
2023/07/16 01:00:41;;;;;;;2.20;1.10;;;;;;;;;;626493;23;1312;-74
2023/07/16 01:00:57;;;;;;;2.97;1.17;;;;;;;;;;625686;23;1376;-74
2023/07/16 01:01:12;;;;;;;2.70;1.10;;;;;;;;;;625427;23;1018;-74
2023/07/16 01:01:27;;;;;;;2.37;1.20;;;;;;;;;;622525;23;1260;-74
2023/07/16 01:01:43;;;;;;;2.67;1.20;;;;;;;;;;625369;23;1433;-74
2023/07/16 01:01:58;;;;;;;2.75;1.20;;;;;;;;;;626514;23;796;-75
2023/07/16 01:02:13;;;;;;;3.17;1.17;;;;;;;;;;628307;23;1002;-74
2023/07/16 01:02:29;;;;;;;3.13;1.20;;;;;;;;;;625692;23;1328;-74
2023/07/16 01:02:44;;;;;;;2.97;1.30;;;;;;;;;;625538;23;986;-74
2023/07/16 01:03:02;;;;;;;2.70;1.20;;;;;;;;;;625651;23;1156;-75
2023/07/16 01:03:38;;;;;;;2.25;1.20;;;;;;;;;;625320;23;858;-74
2023/07/16 01:03:53;;;;;;;2.58;1.15;;;;;;;;;;630230;23;1379;-74
2023/07/16 01:04:08;;;;;;;3.63;1.20;;;;;;;;;;630056;23;1163;-74
2023/07/16 01:04:24;;;;;;;3.67;1.23;;;;;;;;;;628670;23;1265;-74
2023/07/16 01:04:39;;;;;;;2.47;1.08;;;;;;;;;;627060;23;1298;-75
2023/07/16 01:04:54;;;;;;;2.10;1.00;;;;;;;;;;630703;23;1035;-75
2023/07/16 01:05:10;;;;;;;3.00;1.10;;;;;;;;;;628153;23;1195;-74
2023/07/16 01:05:29;;;;;;;3.33;1.10;;;;;;;;;;628603;23;787;-74
2023/07/16 01:06:02;;;;;;;2.67;1.10;;;;;;;;;;628109;23;1044;-75
2023/07/16 01:06:25;;;;;;;4.18;1.30;;;;;;;;;;630341;23;926;-75
2023/07/16 01:06:42;;;;;;;3.67;1.33;;;;;;;;;;634643;23;1029;-75
2023/07/16 01:07:04;;;;;;;3.55;1.27;;;;;;;;;;634167;22;950;-74
2023/07/16 01:07:23;;;;;;;2.83;1.10;;;;;;;;;;634414;23;1331;-74
2023/07/16 01:07:46;;;;;;;2.47;1.10;;;;;;;;;;634132;23;846;-74
2023/07/16 01:08:06;;;;;;;2.65;1.20;;;;;;;;;;631949;23;1398;-74
2023/07/16 01:08:31;;;;;;;1.98;1.15;;;;;;;;;;631187;23;1245;-74
2023/07/16 01:09:02;;;;;;;2.38;1.17;;;;;;;;;;631264;23;1171;-75
2023/07/16 01:09:20;;;;;;;3.10;1.10;;;;;;;;;;631702;23;1432;-74
2023/07/16 01:09:41;;;;;;;2.80;1.10;;;;;;;;;;630942;23;1487;-75
2023/07/16 01:09:57;;;;;;;2.72;1.20;;;;;;;;;;632746;23;925;-75
2023/07/16 01:10:13;;;;;;;3.60;1.33;;;;;;;;;;631893;23;1348;-75
2023/07/16 01:10:29;;;;;;;3.50;1.30;;;;;;;;;;628821;23;1159;-75
2023/07/16 01:10:45;;;;;;;2.38;1.10;;;;;;;;;;630454;23;961;-75
2023/07/16 01:11:01;;;;;;;2.05;1.10;;;;;;;;;;631526;23;831;-74
2023/07/16 01:11:18;;;;;;;3.00;1.20;;;;;;;;;;632079;23;997;-74
2023/07/16 01:11:35;;;;;;;3.50;1.20;;;;;;;;;;632361;23;969;-75
2023/07/16 01:11:51;;;;;;;2.85;1.10;;;;;;;;;;628465;23;1460;-75
2023/07/16 01:12:07;;;;;;;3.22;1.05;;;;;;;;;;630017;23;1025;-74
2023/07/16 01:12:24;;;;;;;3.15;1.00;;;;;;;;;;630363;23;1430;-74
2023/07/16 01:12:39;;;;;;;3.13;1.10;;;;;;;;;;631684;23;1327;-76
2023/07/16 01:12:56;;;;;;;2.38;1.05;;;;;;;;;;628366;23;1286;-74
2023/07/16 01:13:11;;;;;;;2.40;1.13;;;;;;;;;;625574;23;1381;-75
2023/07/16 01:13:27;;;;;;;2.75;1.30;;;;;;;;;;626227;23;1029;-74
2023/07/16 01:13:43;;;;;;;2.92;1.30;;;;;;;;;;629076;23;1617;-74
2023/07/16 01:13:59;;;;;;;3.03;1.40;;;;;;;;;;631839;23;870;-75
2023/07/16 01:14:17;;;;;;;2.15;1.25;;;;;;;;;;631599;23;961;-75
2023/07/16 01:14:33;;;;;;;3.60;1.35;;;;;;;;;;628447;23;1341;-74
2023/07/16 01:14:51;;;;;;;3.70;1.30;;;;;;;;;;630171;23;853;-74
2023/07/16 01:15:06;;;;;;;2.50;1.10;;;;;;;;;;631977;23;874;-75
2023/07/16 01:15:23;;;;;;;3.05;1.05;;;;;;;;;;632661;23;1277;-75
2023/07/16 01:15:38;;;;;;;2.78;1.02;;;;;;;;;;632835;23;1159;-74
2023/07/16 01:15:53;;;;;;;2.45;1.27;;;;;;;;;;632464;23;1188;-75
2023/07/16 01:16:22;;;;;;;2.90;1.30;;;;;;;;;;631645;23;807;-74
2023/07/16 01:16:38;;;;;;;2.60;1.17;;;;;;;;;;631880;23;839;-75
2023/07/16 01:16:58;;;;;;;3.20;1.27;;;;;;;;;;629314;23;1197;-75
2023/07/16 01:17:13;;;;;;;3.50;1.20;;;;;;;;;;625637;23;1383;-75
2023/07/16 01:17:29;;;;;;;3.67;1.20;;;;;;;;;;625501;23;950;-75
2023/07/16 01:17:45;;;;;;;3.77;1.13;;;;;;;;;;623423;23;1267;-75
2023/07/16 01:18:00;;;;;;;3.10;1.10;;;;;;;;;;625330;23;1302;-75
2023/07/16 01:18:15;;;;;;;2.17;1.10;;;;;;;;;;626179;23;832;-75
2023/07/16 01:18:31;;;;;;;2.07;1.13;;;;;;;;;;624134;23;1185;-75
2023/07/16 01:18:46;;;;;;;2.40;1.20;;;;;;;;;;626796;23;994;-75
2023/07/16 01:19:03;;;;;;;2.40;1.23;;;;;;;;;;628702;23;899;-74
2023/07/16 01:19:18;;;;;;;2.83;1.27;;;;;;;;;;629559;23;882;-75
2023/07/16 01:19:34;;;;;;;2.85;1.30;;;;;;;;;;626524;23;1341;-75
2023/07/16 01:19:50;;;;;;;2.20;1.15;;;;;;;;;;628676;23;1407;-74
2023/07/16 01:20:06;;;;;;;2.97;1.20;;;;;;;;;;632207;23;1952;-75
2023/07/16 01:20:21;;;;;;;2.80;1.10;;;;;;;;;;628820;23;1357;-75
2023/07/16 01:20:37;;;;;;;2.43;1.00;;;;;;;;;;629949;23;1274;-74
2023/07/16 01:20:52;;;;;;;2.53;1.00;;;;;;;;;;629006;23;1326;-74
2023/07/16 01:21:07;;;;;;;3.58;1.30;;;;;;;;;;625621;23;1218;-75
2023/07/16 01:21:24;;;;;;;3.13;1.40;;;;;;;;;;622330;23;1180;-75
2023/07/16 01:21:52;;;;;;;2.47;1.20;;;;;;;;;;622749;23;1279;-75
2023/07/16 01:22:19;;;;;;;3.80;1.30;;;;;;;;;;623133;23;957;-75
2023/07/16 01:23:12;;;;;;;4.28;1.27;;;;;;;;;;622551;23;1358;-75
2023/07/16 01:23:45;;;;;;;3.40;1.30;;;;;;;;;;628432;23;875;-75
2023/07/16 01:24:40;;;;;;;2.10;1.10;;;;;;;;;;631447;23;997;-75
2023/07/16 01:25:26;;;;;;;4.45;1.30;;;;;;;;;;632067;23;1001;-74
2023/07/16 01:25:53;;;;;;;2.42;1.13;;;;;;;;;;630030;23;1485;-74
2023/07/16 01:26:19;;;;;;;3.10;1.17;;;;;;;;;;631368;23;1044;-75
2023/07/16 01:27:09;;;;;;;3.13;1.30;;;;;;;;;;631624;23;1409;-75
2023/07/16 01:27:44;;;;;;;2.28;1.13;;;;;;;;;;634492;23;1190;-75
2023/07/16 01:28:08;;;;;;;2.92;1.30;;;;;;;;;;632241;23;1262;-76
2023/07/16 01:28:56;;;;;;;2.85;1.05;;;;;;;;;;627849;23;1645;-75
2023/07/16 01:29:27;;;;;;;1.75;1.00;;;;;;;;;;628704;23;1268;-75
2023/07/16 01:29:51;;;;;;;3.13;1.10;;;;;;;;;;628207;23;1002;-75
2023/07/16 01:30:11;;;;;;;3.22;1.30;;;;;;;;;;632024;23;1086;-75
2023/07/16 01:30:28;;;;;;;3.22;1.30;;;;;;;;;;631324;23;1349;-75
2023/07/16 01:30:45;;;;;;;3.38;1.25;;;;;;;;;;630872;23;1453;-74
2023/07/16 01:31:00;;;;;;;3.17;1.20;;;;;;;;;;628373;23;1370;-75
2023/07/16 01:31:17;;;;;;;2.97;1.20;;;;;;;;;;627875;23;1531;-75
2023/07/16 01:31:34;;;;;;;3.55;1.30;;;;;;;;;;628775;23;1010;-75
2023/07/16 01:31:50;;;;;;;3.35;1.30;;;;;;;;;;625916;23;1303;-74
2023/07/16 01:32:07;;;;;;;2.75;1.40;;;;;;;;;;621975;23;1236;-75
2023/07/16 01:32:23;;;;;;;2.70;1.40;;;;;;;;;;622229;23;1274;-74
2023/07/16 01:32:40;;;;;;;3.15;1.38;;;;;;;;;;625506;23;1626;-74
2023/07/16 01:32:57;;;;;;;3.58;1.40;;;;;;;;;;623077;23;1363;-75
2023/07/16 01:33:15;;;;;;;3.85;1.50;;;;;;;;;;623526;23;1252;-75
2023/07/16 01:33:32;;;;;;;4.15;1.42;;;;;;;;;;626120;23;1302;-75
2023/07/16 01:33:48;;;;;;;3.97;1.40;;;;;;;;;;626015;23;1234;-75
2023/07/16 01:34:05;;;;;;;2.92;1.30;;;;;;;;;;623165;23;1491;-75
2023/07/16 01:34:21;;;;;;;2.80;1.30;;;;;;;;;;622840;23;1085;-75
2023/07/16 01:34:38;;;;;;;2.92;1.27;;;;;;;;;;624121;23;1329;-75
2023/07/16 01:34:53;;;;;;;2.47;1.20;;;;;;;;;;626465;23;1077;-75
2023/07/16 01:35:09;;;;;;;2.60;1.30;;;;;;;;;;625050;23;1268;-75
2023/07/16 01:35:26;;;;;;;2.65;1.30;;;;;;;;;;623593;23;1236;-75
2023/07/16 01:35:42;;;;;;;2.10;1.20;;;;;;;;;;621970;23;1356;-75
2023/07/16 01:35:59;;;;;;;2.33;1.10;;;;;;;;;;623780;23;1327;-75
2023/07/16 01:36:15;;;;;;;2.22;1.10;;;;;;;;;;623014;23;1192;-75
2023/07/16 01:36:33;;;;;;;2.17;1.10;;;;;;;;;;624824;23;877;-75
2023/07/16 01:36:49;;;;;;;2.55;1.23;;;;;;;;;;623311;23;1499;-75
2023/07/16 01:37:05;;;;;;;2.63;1.08;;;;;;;;;;622471;23;1405;-75
2023/07/16 01:37:20;;;;;;;3.47;1.13;;;;;;;;;;623261;23;820;-75
2023/07/16 01:37:35;;;;;;;3.65;1.25;;;;;;;;;;624557;23;859;-75
2023/07/16 01:37:51;;;;;;;3.03;1.13;;;;;;;;;;627055;23;887;-75
2023/07/16 01:38:08;;;;;;;2.22;1.10;;;;;;;;;;631013;23;838;-75
2023/07/16 01:38:24;;;;;;;2.08;1.20;;;;;;;;;;627812;23;1222;-75
2023/07/16 01:38:39;;;;;;;2.08;1.10;;;;;;;;;;626669;23;1251;-75
2023/07/16 01:38:55;;;;;;;1.80;1.03;;;;;;;;;;630800;23;823;-75
2023/07/16 01:39:10;;;;;;;3.15;1.20;;;;;;;;;;632375;23;1260;-75
2023/07/16 01:39:26;;;;;;;4.07;1.40;;;;;;;;;;629667;23;1223;-75
2023/07/16 01:39:41;;;;;;;3.23;1.30;;;;;;;;;;628872;23;1199;-75
2023/07/16 01:39:57;;;;;;;2.67;1.17;;;;;;;;;;629135;23;1956;-75
2023/07/16 01:40:13;;;;;;;2.72;1.20;;;;;;;;;;630554;23;799;-75
2023/07/16 01:40:30;;;;;;;2.93;1.30;;;;;;;;;;632702;23;1287;-75
2023/07/16 01:40:45;;;;;;;3.65;1.40;;;;;;;;;;631705;23;911;-75
2023/07/16 01:41:00;;;;;;;3.50;1.45;;;;;;;;;;632441;23;890;-75
2023/07/16 01:41:15;;;;;;;4.10;1.40;;;;;;;;;;630061;23;1164;-75
2023/07/16 01:41:31;;;;;;;4.20;1.40;;;;;;;;;;633229;23;776;-75
2023/07/16 01:41:46;;;;;;;4.40;1.50;;;;;;;;;;630414;23;1141;-75
2023/07/16 01:42:02;;;;;;;4.20;1.30;;;;;;;;;;630162;23;1226;-76
2023/07/16 01:42:18;;;;;;;2.90;1.20;;;;;;;;;;628517;23;1330;-75
2023/07/16 01:42:33;;;;;;;2.80;1.20;;;;;;;;;;628292;23;950;-75
2023/07/16 01:42:48;;;;;;;2.35;1.23;;;;;;;;;;628189;23;1139;-74
2023/07/16 01:43:04;;;;;;;3.00;1.20;;;;;;;;;;625993;23;1222;-75
2023/07/16 01:43:19;;;;;;;3.50;1.20;;;;;;;;;;625955;23;1172;-75
2023/07/16 01:43:34;;;;;;;2.50;1.20;;;;;;;;;;628963;23;1327;-75
2023/07/16 01:43:49;;;;;;;2.47;1.17;;;;;;;;;;625740;23;1282;-75
2023/07/16 01:44:05;;;;;;;2.60;1.20;;;;;;;;;;621626;23;1271;-75
2023/07/16 01:44:40;;;;;;;3.20;1.30;;;;;;;;;;625761;23;1349;-75
2023/07/16 01:44:56;;;;;;;2.13;1.17;;;;;;;;;;627267;23;1085;-75
2023/07/16 01:45:11;;;;;;;4.03;1.20;;;;;;;;;;629318;23;875;-75
2023/07/16 01:45:26;;;;;;;5.15;1.20;;;;;;;;;;627599;23;1155;-75
2023/07/16 01:45:42;;;;;;;3.77;1.20;;;;;;;;;;626980;23;1141;-74
2023/07/16 01:45:57;;;;;;;3.53;1.20;;;;;;;;;;629120;23;815;-75
2023/07/16 01:46:13;;;;;;;3.47;1.23;;;;;;;;;;630571;23;1037;-75
2023/07/16 01:46:29;;;;;;;3.63;1.27;;;;;;;;;;629855;23;1159;-75
2023/07/16 01:47:06;;;;;;;3.63;1.20;;;;;;;;;;626945;23;1352;-74
2023/07/16 01:47:38;;;;;;;2.58;1.20;;;;;;;;;;627885;23;1408;-75
2023/07/16 01:48:28;;;;;;;3.65;1.30;;;;;;;;;;631765;23;847;-74
2023/07/16 01:48:44;;;;;;;3.42;1.17;;;;;;;;;;635241;23;1259;-75
2023/07/16 01:48:59;;;;;;;3.33;1.13;;;;;;;;;;633013;23;1294;-75